Time;durP1;ratioP1;P1;durP2;ratioP2;P2;SDS_P1;SDS_P2;PMS_P1;PMS_P2;Temp;Humidity;BMP_temperature;BMP_pressure;BME280_temperature;BME280_humidity;BME280_pressure;Samples;Min_cycle;Max_cycle;Signal;HPM_P1;HPM_P2
2022/07/12 00:00:45;;;;;;;3.00;2.80;;;16.00;1.00;;;;;;6292810;28;20246;-54
2022/07/12 00:03:49;;;;;;;2.60;2.50;;;16.00;1.00;;;;;;6287972;28;20221;-55
2022/07/12 00:06:52;;;;;;;2.53;2.43;;;16.00;1.00;;;;;;6289973;28;20274;-54
2022/07/12 00:09:56;;;;;;;4.03;2.80;;;15.90;1.00;;;;;;6286313;28;20241;-55
2022/07/12 00:12:59;;;;;;;2.40;2.30;;;15.90;1.00;;;;;;6282599;28;20507;-54
2022/07/12 00:16:02;;;;;;;2.30;2.23;;;15.90;1.00;;;;;;6300938;28;20224;-55
2022/07/12 00:19:08;;;;;;;2.70;2.60;;;15.90;1.00;;;;;;6265091;28;20730;-53
2022/07/12 00:22:11;;;;;;;2.63;2.43;;;15.90;1.00;;;;;;6278523;28;20235;-55
2022/07/12 00:25:16;;;;;;;2.30;2.20;;;15.90;1.00;;;;;;6289529;28;20278;-55
2022/07/12 00:28:21;;;;;;;2.60;2.40;;;15.80;1.00;;;;;;6278583;28;20315;-55
2022/07/12 00:31:24;;;;;;;2.23;2.20;;;15.80;1.00;;;;;;6286185;28;20880;-56
2022/07/12 00:34:28;;;;;;;2.73;2.63;;;15.80;1.00;;;;;;6301141;28;20613;-54
2022/07/12 00:37:31;;;;;;;2.53;2.40;;;15.70;1.00;;;;;;6299441;28;20336;-55
2022/07/12 00:40:34;;;;;;;2.20;2.10;;;15.70;1.00;;;;;;6276084;28;20452;-54
2022/07/12 00:43:38;;;;;;;2.43;2.20;;;15.60;1.00;;;;;;6263128;28;20298;-55
2022/07/12 00:46:41;;;;;;;2.67;2.57;;;15.60;1.00;;;;;;6289807;28;20252;-53
2022/07/12 00:49:47;;;;;;;2.43;2.33;;;15.60;1.00;;;;;;6280047;28;20636;-53
2022/07/12 00:52:54;;;;;;;2.50;2.40;;;15.50;1.00;;;;;;6297892;28;20232;-55
2022/07/12 00:55:58;;;;;;;2.50;2.40;;;15.60;1.00;;;;;;6293024;28;20234;-55
2022/07/12 00:59:01;;;;;;;2.60;2.60;;;15.60;1.00;;;;;;6283499;28;20719;-55
2022/07/12 01:02:04;;;;;;;2.60;2.50;;;15.50;1.00;;;;;;6286515;28;20225;-54
2022/07/12 01:05:09;;;;;;;2.50;2.40;;;15.40;1.00;;;;;;6296010;28;20601;-55
2022/07/12 01:08:13;;;;;;;2.60;2.50;;;15.40;1.00;;;;;;6275960;28;20258;-54
2022/07/12 01:11:17;;;;;;;2.50;2.40;;;15.40;1.00;;;;;;6275463;28;20320;-54
2022/07/12 01:14:22;;;;;;;2.70;2.70;;;15.40;1.00;;;;;;6276796;28;20238;-54
2022/07/12 01:17:28;;;;;;;2.60;2.50;;;15.30;1.00;;;;;;6279396;28;20234;-54
2022/07/12 01:20:33;;;;;;;2.53;2.43;;;15.20;1.00;;;;;;6285701;28;20842;-54
2022/07/12 01:23:38;;;;;;;2.47;2.47;;;15.20;1.00;;;;;;6281407;28;20286;-54
2022/07/12 01:26:48;;;;;;;3.00;2.80;;;15.20;1.00;;;;;;6270400;28;20578;-55
2022/07/12 01:29:50;;;;;;;2.50;2.40;;;15.10;1.00;;;;;;6297682;28;20264;-54
2022/07/12 01:32:53;;;;;;;2.60;2.50;;;15.10;1.00;;;;;;6282619;28;20240;-55
2022/07/12 01:35:58;;;;;;;2.30;2.30;;;15.10;1.00;;;;;;6279812;28;20253;-54
2022/07/12 01:39:02;;;;;;;2.63;2.53;;;15.00;1.00;;;;;;6279456;28;20559;-55
2022/07/12 01:42:05;;;;;;;2.60;2.50;;;15.00;1.00;;;;;;6278566;28;20302;-54
2022/07/12 01:45:09;;;;;;;2.57;2.57;;;15.00;1.00;;;;;;6275852;28;20637;-55
2022/07/12 01:48:12;;;;;;;2.30;2.30;;;14.90;1.00;;;;;;6281597;28;20233;-54
2022/07/12 01:51:15;;;;;;;2.40;2.30;;;14.90;1.00;;;;;;6277318;28;20237;-54
2022/07/12 01:54:20;;;;;;;2.67;2.50;;;14.90;1.00;;;;;;6277052;28;20383;-55
2022/07/12 01:57:23;;;;;;;2.40;2.30;;;14.90;1.00;;;;;;6288824;28;20295;-55
2022/07/12 02:00:27;;;;;;;2.50;2.50;;;14.90;1.00;;;;;;6270333;28;20279;-53
2022/07/12 02:03:30;;;;;;;2.67;2.57;;;14.80;1.00;;;;;;6281877;28;20396;-56
2022/07/12 02:06:34;;;;;;;2.80;2.70;;;14.70;1.00;;;;;;6303991;28;20240;-54
2022/07/12 02:09:38;;;;;;;2.50;2.40;;;14.70;1.00;;;;;;6271983;28;20245;-53
2022/07/12 02:12:42;;;;;;;2.87;2.80;;;14.70;1.00;;;;;;6273056;28;20442;-54
2022/07/12 02:15:45;;;;;;;3.03;2.83;;;14.60;1.00;;;;;;6286268;28;20315;-55
2022/07/12 02:18:48;;;;;;;2.73;2.60;;;14.60;1.00;;;;;;6271429;28;21669;-56
2022/07/12 02:21:50;;;;;;;2.47;2.37;;;14.60;1.00;;;;;;6277266;28;20256;-56
2022/07/12 02:24:55;;;;;;;2.83;2.63;;;14.60;1.00;;;;;;6278077;28;20366;-54
2022/07/12 02:28:01;;;;;;;3.00;2.90;;;14.60;1.00;;;;;;6272614;28;20353;-55
2022/07/12 02:31:05;;;;;;;2.87;2.77;;;14.50;1.00;;;;;;6280756;28;20260;-56
2022/07/12 02:34:09;;;;;;;2.60;2.50;;;14.50;1.00;;;;;;6282135;28;20284;-55
2022/07/12 02:37:12;;;;;;;3.00;2.80;;;14.40;1.00;;;;;;6269337;28;20337;-53
2022/07/12 02:43:39;;;;;;;2.70;2.60;;;14.40;1.00;;;;;;6274775;28;20322;-53
2022/07/12 02:46:41;;;;;;;2.60;2.50;;;14.40;1.00;;;;;;6278932;28;20233;-55
2022/07/12 02:49:44;;;;;;;2.93;2.83;;;14.40;1.00;;;;;;6278081;28;20613;-53
2022/07/12 02:52:47;;;;;;;4.00;3.23;;;14.40;1.00;;;;;;6272116;28;20270;-54
2022/07/12 02:55:52;;;;;;;2.70;2.70;;;14.40;1.00;;;;;;6277759;28;20241;-55
2022/07/12 02:58:55;;;;;;;3.00;2.90;;;14.30;1.00;;;;;;6269949;28;20459;-54
2022/07/12 03:01:58;;;;;;;3.10;3.00;;;14.30;1.00;;;;;;6274519;28;20226;-56
2022/07/12 03:05:01;;;;;;;3.20;3.00;;;14.20;1.00;;;;;;6281364;28;20896;-55
2022/07/12 03:08:05;;;;;;;3.20;3.00;;;14.30;1.00;;;;;;6271389;28;20879;-54
2022/07/12 03:11:09;;;;;;;3.70;3.60;;;14.30;1.00;;;;;;6276194;28;20316;-55
2022/07/12 03:14:12;;;;;;;3.10;3.00;;;14.20;1.00;;;;;;6278843;28;20519;-55
2022/07/12 03:17:15;;;;;;;3.07;2.97;;;14.30;1.00;;;;;;6271710;28;20320;-53
2022/07/12 03:20:18;;;;;;;3.30;3.10;;;14.20;1.00;;;;;;6277681;28;20244;-55
2022/07/12 03:23:21;;;;;;;3.50;3.30;;;14.20;1.00;;;;;;6275937;28;20320;-57
2022/07/12 03:26:26;;;;;;;3.60;3.40;;;14.20;1.00;;;;;;6280671;28;20736;-55
2022/07/12 03:29:31;;;;;;;3.07;2.87;;;14.30;1.00;;;;;;6281234;28;20249;-55
2022/07/12 03:32:34;;;;;;;3.30;3.00;;;14.30;1.00;;;;;;6260565;28;20315;-56
2022/07/12 03:35:37;;;;;;;3.70;3.30;;;14.30;1.00;;;;;;6284446;28;20255;-55
2022/07/12 03:38:42;;;;;;;2.93;2.73;;;14.30;1.00;;;;;;6266419;28;20742;-55
2022/07/12 03:41:46;;;;;;;2.80;2.73;;;14.30;1.00;;;;;;6272828;28;20371;-54
2022/07/12 03:44:49;;;;;;;2.90;2.80;;;14.40;1.00;;;;;;6280219;28;20776;-55
2022/07/12 03:47:52;;;;;;;3.17;2.80;;;14.40;1.00;;;;;;6276846;28;21119;-54
2022/07/12 03:50:55;;;;;;;3.10;2.90;;;14.50;1.00;;;;;;6268716;28;20321;-54
2022/07/12 03:53:58;;;;;;;4.70;2.87;;;14.50;1.00;;;;;;6281593;28;20313;-55
2022/07/12 03:57:15;;;;;;;2.90;2.70;;;14.50;1.00;;;;;;6286154;28;20233;-55
2022/07/12 04:00:19;;;;;;;5.80;2.67;;;14.60;1.00;;;;;;6276377;28;20443;-54
2022/07/12 04:03:22;;;;;;;2.90;2.80;;;14.60;1.00;;;;;;6277906;28;20241;-55
2022/07/12 04:06:26;;;;;;;3.13;2.93;;;14.70;1.00;;;;;;6273781;28;20245;-53
2022/07/12 04:09:29;;;;;;;4.60;3.00;;;14.80;1.00;;;;;;6269099;28;20564;-54
2022/07/12 04:12:33;;;;;;;3.07;2.73;;;14.80;1.00;;;;;;6292434;28;20336;-56
2022/07/12 04:15:36;;;;;;;3.40;2.83;;;14.90;1.00;;;;;;6286047;28;20261;-54
2022/07/12 04:18:39;;;;;;;3.00;2.77;;;14.90;1.00;;;;;;6283817;28;20797;-56
2022/07/12 04:21:42;;;;;;;3.83;2.83;;;15.00;1.00;;;;;;6279243;28;20245;-55
2022/07/12 04:24:46;;;;;;;2.73;2.70;;;15.00;1.00;;;;;;6276844;28;20637;-54
2022/07/12 04:27:50;;;;;;;2.93;2.73;;;15.10;1.00;;;;;;6292511;28;20265;-55
2022/07/12 04:30:53;;;;;;;2.90;2.80;;;15.20;1.00;;;;;;6285035;28;20325;-54
2022/07/12 04:33:56;;;;;;;3.17;2.77;;;15.20;1.00;;;;;;6280133;28;20698;-54
2022/07/12 04:36:59;;;;;;;4.77;2.93;;;15.30;1.00;;;;;;6289228;28;20309;-56
2022/07/12 04:40:03;;;;;;;2.33;2.30;;;15.30;1.00;;;;;;6281090;28;20316;-54
2022/07/12 04:43:07;;;;;;;2.83;2.53;;;15.40;1.00;;;;;;6282030;28;20533;-55
2022/07/12 04:46:10;;;;;;;2.60;2.50;;;15.40;1.00;;;;;;6260170;28;20237;-55
2022/07/12 04:49:13;;;;;;;4.57;2.50;;;15.50;1.00;;;;;;6268462;28;20324;-54
2022/07/12 04:52:16;;;;;;;2.90;2.80;;;15.60;1.00;;;;;;6276712;28;20230;-53
2022/07/12 04:55:19;;;;;;;2.80;2.47;;;15.70;1.00;;;;;;6285306;28;20661;-56
2022/07/12 04:58:24;;;;;;;2.70;2.50;;;15.80;1.00;;;;;;6287099;28;20353;-53
2022/07/12 05:01:27;;;;;;;2.87;2.67;;;15.90;1.00;;;;;;6284039;28;20258;-55
2022/07/12 05:04:32;;;;;;;2.70;2.60;;;16.10;1.00;;;;;;6287092;28;20359;-53
2022/07/12 05:07:35;;;;;;;2.17;2.17;;;16.30;1.00;;;;;;6267939;28;20249;-54
2022/07/12 05:10:38;;;;;;;3.43;2.47;;;16.50;1.00;;;;;;6284923;28;20255;-54
2022/07/12 05:13:42;;;;;;;2.20;2.10;;;16.90;1.00;;;;;;6280303;28;20924;-55
2022/07/12 05:16:45;;;;;;;2.47;2.27;;;17.10;1.00;;;;;;6278267;28;20286;-55
2022/07/12 05:19:48;;;;;;;2.50;2.33;;;17.40;1.00;;;;;;6276756;28;20291;-55
2022/07/12 05:22:51;;;;;;;2.33;2.17;;;17.70;1.00;;;;;;6277352;28;20767;-55
2022/07/12 05:25:54;;;;;;;3.00;2.20;;;18.00;1.00;;;;;;6284337;28;20722;-54
2022/07/12 05:28:59;;;;;;;2.13;2.00;;;18.20;1.00;;;;;;6283921;28;20327;-53
2022/07/12 05:32:02;;;;;;;2.67;1.80;;;18.50;1.00;;;;;;6290593;28;20233;-55
2022/07/12 05:35:12;;;;;;;3.03;1.80;;;18.80;1.00;;;;;;6287265;28;20242;-54
2022/07/12 05:38:15;;;;;;;2.57;2.00;;;19.10;1.00;;;;;;6273862;28;20511;-54
2022/07/12 05:41:18;;;;;;;2.10;1.90;;;19.40;1.00;;;;;;6283431;28;20317;-55
2022/07/12 05:44:22;;;;;;;4.83;2.00;;;19.70;1.00;;;;;;6292257;28;20316;-51
2022/07/12 05:47:25;;;;;;;1.63;1.60;;;20.00;1.00;;;;;;6276398;28;20233;-54
2022/07/12 05:50:28;;;;;;;1.83;1.73;;;20.20;1.00;;;;;;6286566;28;20237;-54
2022/07/12 05:53:31;;;;;;;2.43;1.73;;;20.50;1.00;;;;;;6277325;28;20903;-53
2022/07/12 05:56:34;;;;;;;3.00;1.90;;;20.80;1.00;;;;;;6276007;28;20371;-54
2022/07/12 05:59:38;;;;;;;2.23;1.60;;;21.00;1.00;;;;;;6285584;28;20632;-55
2022/07/12 06:02:41;;;;;;;1.57;1.50;;;21.20;1.00;;;;;;6281450;28;20237;-63
2022/07/12 06:05:44;;;;;;;2.00;1.70;;;21.30;1.00;;;;;;6284151;28;20728;-53
2022/07/12 06:08:47;;;;;;;4.73;2.10;;;21.60;1.00;;;;;;6282271;28;20603;-55
2022/07/12 06:11:50;;;;;;;1.80;1.70;;;21.50;1.00;;;;;;6274651;28;20383;-55
2022/07/12 06:14:56;;;;;;;6.20;1.87;;;21.80;1.00;;;;;;6286684;28;20460;-55
2022/07/12 06:17:59;;;;;;;4.00;1.70;;;22.00;1.00;;;;;;6284052;28;20237;-54
2022/07/12 06:21:02;;;;;;;2.00;1.80;;;22.10;1.00;;;;;;6274901;28;20553;-55
2022/07/12 06:24:06;;;;;;;2.00;1.90;;;22.40;1.00;;;;;;6284248;28;20256;-53
2022/07/12 06:27:09;;;;;;;1.60;1.50;;;22.60;1.00;;;;;;6280586;28;20268;-54
2022/07/12 06:30:13;;;;;;;1.50;1.40;;;22.70;1.00;;;;;;6276930;28;20331;-55
2022/07/12 06:33:16;;;;;;;1.80;1.47;;;22.70;1.00;;;;;;6277290;28;20403;-53
2022/07/12 06:36:19;;;;;;;2.07;1.97;;;22.90;1.00;;;;;;6274569;28;20367;-54
2022/07/12 06:39:22;;;;;;;2.00;1.90;;;23.00;1.00;;;;;;6280245;28;20255;-54
2022/07/12 06:42:25;;;;;;;4.73;2.53;;;23.20;1.00;;;;;;6284123;28;20318;-54
2022/07/12 06:45:29;;;;;;;2.00;1.80;;;23.50;1.00;;;;;;6288233;28;20247;-54
2022/07/12 06:48:32;;;;;;;2.10;2.00;;;23.50;1.00;;;;;;6285171;28;20245;-53
2022/07/12 06:51:38;;;;;;;2.33;1.80;;;23.50;1.00;;;;;;6274764;28;20708;-54
2022/07/12 06:54:41;;;;;;;2.20;2.00;;;23.80;1.00;;;;;;6279562;28;20232;-54
2022/07/12 06:57:44;;;;;;;5.57;2.40;;;24.00;1.00;;;;;;6282883;28;20243;-54
2022/07/12 07:00:49;;;;;;;2.17;2.03;;;24.40;1.00;;;;;;6275328;28;20426;-53
2022/07/12 07:03:52;;;;;;;3.97;2.37;;;24.70;1.00;;;;;;6278795;28;20234;-53
2022/07/12 07:06:55;;;;;;;5.53;2.10;;;24.70;1.00;;;;;;6289315;28;20228;-54
2022/07/12 07:09:58;;;;;;;3.00;2.10;;;24.60;1.00;;;;;;6278530;28;20239;-53
2022/07/12 07:13:01;;;;;;;6.27;2.20;;;24.60;1.00;;;;;;6273435;28;20724;-53
2022/07/12 07:16:06;;;;;;;2.83;2.20;;;24.50;1.00;;;;;;6284143;28;20618;-54
2022/07/12 07:19:09;;;;;;;3.23;2.20;;;24.50;1.00;;;;;;6285901;28;20804;-55
2022/07/12 07:22:12;;;;;;;2.23;2.07;;;24.60;1.00;;;;;;6276163;28;20238;-54
2022/07/12 07:25:16;;;;;;;2.50;2.40;;;23.80;1.00;;;;;;6279966;28;20316;-54
2022/07/12 07:28:18;;;;;;;2.80;2.27;;;23.80;1.00;;;;;;6280427;28;20306;-55
2022/07/12 07:31:45;;;;;;;2.80;2.60;;;23.90;1.00;;;;;;6270518;28;20229;-57
2022/07/12 07:34:48;;;;;;;6.60;2.37;;;23.90;1.00;;;;;;6283781;28;20616;-54
2022/07/12 07:37:52;;;;;;;2.20;2.20;;;23.80;1.00;;;;;;6276028;28;20486;-54
2022/07/12 07:40:56;;;;;;;1.90;1.80;;;23.80;1.00;;;;;;6284381;28;20576;-54
2022/07/12 07:43:59;;;;;;;2.13;1.90;;;23.60;1.00;;;;;;6283367;28;20728;-54
2022/07/12 07:47:04;;;;;;;2.27;2.07;;;23.50;1.00;;;;;;6281377;28;20233;-54
2022/07/12 07:50:08;;;;;;;3.93;2.13;;;23.50;1.00;;;;;;6285789;28;20642;-56
2022/07/12 07:53:11;;;;;;;2.20;2.10;;;23.50;1.00;;;;;;6280677;28;20237;-56
2022/07/12 07:56:14;;;;;;;2.40;2.20;;;23.50;1.00;;;;;;6282547;28;20297;-55
2022/07/12 07:59:16;;;;;;;2.10;2.00;;;23.30;1.00;;;;;;6289840;28;20289;-55
2022/07/12 08:02:21;;;;;;;2.07;1.63;;;23.30;1.00;;;;;;6284272;28;20370;-54
2022/07/12 08:05:24;;;;;;;2.47;2.27;;;23.30;1.00;;;;;;6278444;28;20237;-53
2022/07/12 08:08:31;;;;;;;3.13;1.90;;;23.40;1.00;;;;;;6280598;28;20240;-55
2022/07/12 08:11:53;;;;;;;2.17;2.00;;;23.30;1.00;;;;;;6283165;28;20248;-54
2022/07/12 08:14:56;;;;;;;1.80;1.80;;;23.00;1.00;;;;;;6287471;28;20330;-53
2022/07/12 08:18:01;;;;;;;2.97;2.17;;;22.90;1.00;;;;;;6286092;28;20241;-53
2022/07/12 08:21:06;;;;;;;2.20;2.10;;;22.60;1.00;;;;;;6281041;28;20230;-53
2022/07/12 08:24:08;;;;;;;2.93;2.27;;;22.60;1.00;;;;;;6289027;28;20304;-54
2022/07/12 08:27:12;;;;;;;2.20;2.10;;;22.70;1.00;;;;;;6282739;28;20262;-55
2022/07/12 08:30:15;;;;;;;1.80;1.80;;;22.80;1.00;;;;;;6267851;28;20247;-54
2022/07/12 08:33:19;;;;;;;2.37;2.20;;;22.80;1.00;;;;;;6283104;28;20233;-52
2022/07/12 08:36:22;;;;;;;1.80;1.70;;;22.80;1.00;;;;;;6275903;28;20299;-54
2022/07/12 08:39:25;;;;;;;1.90;1.80;;;22.90;1.00;;;;;;6277211;28;20330;-53
2022/07/12 08:42:32;;;;;;;4.07;2.03;;;23.00;1.00;;;;;;6281155;28;20316;-53
2022/07/12 08:45:35;;;;;;;2.03;1.87;;;23.20;1.00;;;;;;6283552;28;20791;-53
2022/07/12 08:48:54;;;;;;;7.53;2.03;;;23.30;1.00;;;;;;6282229;28;20469;-54
2022/07/12 08:51:57;;;;;;;2.93;2.00;;;23.30;1.00;;;;;;6276246;28;21088;-53
2022/07/12 08:55:00;;;;;;;2.77;2.37;;;23.40;1.00;;;;;;6284041;28;20233;-54
2022/07/12 08:58:06;;;;;;;2.00;1.80;;;23.60;1.00;;;;;;6292975;28;20233;-54
2022/07/12 09:01:09;;;;;;;4.57;1.70;;;23.70;1.00;;;;;;6273758;28;20233;-56
2022/07/12 09:04:18;;;;;;;2.83;1.87;;;23.80;1.00;;;;;;6276384;28;20660;-55
2022/07/12 09:07:21;;;;;;;2.80;2.00;;;23.80;1.00;;;;;;6283196;28;20242;-55
2022/07/12 09:10:24;;;;;;;2.00;1.90;;;24.00;1.00;;;;;;6273724;28;20329;-54
2022/07/12 09:13:47;;;;;;;1.80;1.70;;;24.20;1.00;;;;;;6279202;28;20240;-54
2022/07/12 09:17:00;;;;;;;1.67;1.63;;;24.30;1.00;;;;;;6284121;28;20261;-53
2022/07/12 09:20:11;;;;;;;2.00;1.90;;;24.30;1.00;;;;;;6278092;28;20240;-54
2022/07/12 09:23:14;;;;;;;2.80;1.90;;;24.30;1.00;;;;;;6284077;28;20309;-53
2022/07/12 09:26:17;;;;;;;1.53;1.50;;;24.40;1.00;;;;;;6283411;28;20645;-55
2022/07/12 09:29:21;;;;;;;5.57;1.90;;;24.60;1.00;;;;;;6288418;28;20706;-57
2022/07/12 09:36:07;;;;;;;3.87;2.03;;;24.50;1.00;;;;;;6283170;28;20691;-55
2022/07/12 09:39:10;;;;;;;2.57;1.60;;;24.50;1.00;;;;;;6278401;28;20314;-53
2022/07/12 09:42:14;;;;;;;1.47;1.47;;;24.50;1.00;;;;;;6274971;28;20339;-53
2022/07/12 09:45:18;;;;;;;1.93;1.83;;;24.50;1.00;;;;;;6285806;28;20366;-53
2022/07/12 09:48:27;;;;;;;3.60;2.10;;;24.40;1.00;;;;;;6285271;28;20579;-54
2022/07/12 09:51:34;;;;;;;2.00;1.90;;;24.50;1.00;;;;;;6283161;28;20542;-54
2022/07/12 09:54:41;;;;;;;1.57;1.43;;;24.70;1.00;;;;;;6280060;28;20608;-53
2022/07/12 09:57:46;;;;;;;2.40;1.70;;;24.70;1.00;;;;;;6275361;28;20316;-54
2022/07/12 10:00:52;;;;;;;2.07;1.53;;;24.70;1.00;;;;;;6283719;28;20229;-52
2022/07/12 10:03:57;;;;;;;3.80;1.90;;;24.70;1.00;;;;;;6279984;28;20718;-55
2022/07/12 10:07:02;;;;;;;1.67;1.57;;;24.90;1.00;;;;;;6280457;28;20972;-54
2022/07/12 10:10:06;;;;;;;2.03;1.93;;;25.10;1.00;;;;;;6276436;28;20813;-54
2022/07/12 10:13:10;;;;;;;2.20;1.70;;;24.90;1.00;;;;;;6277924;28;20787;-55
2022/07/12 10:16:15;;;;;;;1.30;1.30;;;24.90;1.00;;;;;;6284694;28;20295;-55
2022/07/12 10:19:25;;;;;;;1.70;1.60;;;25.10;1.00;;;;;;6285833;28;20849;-53
2022/07/12 10:22:30;;;;;;;1.93;1.93;;;25.20;1.00;;;;;;6276600;28;20371;-54
2022/07/12 10:25:34;;;;;;;3.13;1.77;;;25.10;1.00;;;;;;6281356;28;20272;-53
2022/07/12 10:29:05;;;;;;;3.53;2.10;;;25.10;1.00;;;;;;6281681;28;20237;-53
2022/07/12 10:32:22;;;;;;;1.87;1.70;;;25.20;1.00;;;;;;6271394;28;20340;-54
2022/07/12 10:35:27;;;;;;;1.93;1.90;;;25.30;1.00;;;;;;6287608;28;20235;-54
2022/07/12 10:38:31;;;;;;;1.80;1.80;;;25.10;1.00;;;;;;6267052;28;20248;-54
2022/07/12 10:41:34;;;;;;;4.03;1.37;;;25.10;1.00;;;;;;6283338;28;20237;-54
2022/07/12 10:44:39;;;;;;;1.60;1.50;;;25.10;1.00;;;;;;6285977;28;20472;-53
2022/07/12 10:47:55;;;;;;;1.40;1.40;;;25.20;1.00;;;;;;6285543;28;20906;-54
2022/07/12 10:50:58;;;;;;;1.80;1.80;;;25.30;1.00;;;;;;6280203;28;20233;-54
2022/07/12 10:54:20;;;;;;;1.63;1.60;;;25.40;1.00;;;;;;6278084;28;20706;-54
2022/07/12 10:57:39;;;;;;;1.73;1.63;;;25.50;1.00;;;;;;6284730;28;20653;-54
2022/07/12 11:00:42;;;;;;;2.00;1.90;;;25.40;1.00;;;;;;6275067;28;20246;-53
2022/07/12 11:03:50;;;;;;;2.53;1.60;;;25.50;1.00;;;;;;6275870;28;20236;-53
2022/07/12 11:06:57;;;;;;;1.70;1.70;;;25.40;1.00;;;;;;6283891;28;20233;-54
2022/07/12 11:10:02;;;;;;;1.77;1.77;;;25.50;1.00;;;;;;6266374;28;20381;-56
2022/07/12 11:13:24;;;;;;;1.67;1.67;;;25.40;1.00;;;;;;6279434;28;20252;-54
2022/07/12 11:16:29;;;;;;;1.77;1.70;;;25.70;1.00;;;;;;6269232;28;20237;-54
2022/07/12 11:19:34;;;;;;;1.80;1.80;;;25.80;1.00;;;;;;6270472;28;20242;-53
2022/07/12 11:22:39;;;;;;;1.87;1.87;;;25.90;1.00;;;;;;6262448;28;20241;-53
2022/07/12 11:25:45;;;;;;;2.00;1.90;;;26.30;1.00;;;;;;6276804;28;20249;-53
2022/07/12 11:28:49;;;;;;;1.73;1.63;;;26.60;1.00;;;;;;6275770;28;20313;-54
2022/07/12 11:32:03;;;;;;;2.00;1.90;;;26.70;1.00;;;;;;6281717;28;20626;-53
2022/07/12 11:35:20;;;;;;;4.57;1.80;;;26.80;1.00;;;;;;6280085;28;20230;-53
2022/07/12 11:38:26;;;;;;;1.60;1.60;;;26.80;1.00;;;;;;6280215;28;20314;-55
2022/07/12 11:41:38;;;;;;;2.20;1.77;;;26.80;1.00;;;;;;6279098;28;20639;-54
2022/07/12 11:44:45;;;;;;;1.67;1.57;;;26.80;1.00;;;;;;6283560;28;20409;-53
2022/07/12 11:47:48;;;;;;;2.77;1.80;;;26.60;1.00;;;;;;6284739;28;20355;-53
2022/07/12 11:50:52;;;;;;;2.50;2.13;;;26.40;1.00;;;;;;6276914;28;20379;-54
2022/07/12 11:53:58;;;;;;;1.60;1.60;;;26.40;1.00;;;;;;6277281;28;20289;-53
2022/07/12 11:57:10;;;;;;;1.90;1.90;;;26.40;1.00;;;;;;6279775;28;20326;-54
2022/07/12 12:00:18;;;;;;;3.40;1.80;;;26.50;1.00;;;;;;6266795;28;20280;-52
2022/07/12 12:03:22;;;;;;;2.77;2.10;;;26.70;1.00;;;;;;6278274;28;20324;-54
2022/07/12 12:06:26;;;;;;;1.60;1.60;;;26.70;1.00;;;;;;6276903;28;20237;-54
2022/07/12 12:09:28;;;;;;;1.70;1.60;;;26.70;1.00;;;;;;6283764;28;20500;-53
2022/07/12 12:12:44;;;;;;;2.17;2.00;;;26.70;1.00;;;;;;6282053;28;20286;-53
2022/07/12 12:15:51;;;;;;;1.70;1.60;;;26.80;1.00;;;;;;6285014;28;20680;-53
2022/07/12 12:18:55;;;;;;;1.90;1.90;;;26.90;1.00;;;;;;6286263;28;20284;-53
2022/07/12 12:21:58;;;;;;;2.27;2.17;;;27.00;1.00;;;;;;6281479;28;20709;-54
2022/07/12 12:25:02;;;;;;;1.73;1.73;;;26.90;1.00;;;;;;6287228;28;20713;-53
2022/07/12 12:28:12;;;;;;;1.73;1.73;;;26.80;1.00;;;;;;6288455;28;20278;-54
2022/07/12 12:31:19;;;;;;;1.73;1.73;;;26.70;1.00;;;;;;6273926;28;20238;-53
2022/07/12 12:34:22;;;;;;;2.53;1.80;;;26.70;1.00;;;;;;6271586;28;20234;-55
2022/07/12 12:37:26;;;;;;;1.77;1.67;;;26.80;1.00;;;;;;6279973;28;20237;-54
2022/07/12 12:40:31;;;;;;;2.83;1.50;;;27.00;1.00;;;;;;6278869;28;20245;-55
2022/07/12 12:43:35;;;;;;;2.00;1.90;;;27.00;1.00;;;;;;6287570;28;20237;-54
2022/07/12 12:46:53;;;;;;;4.10;2.50;;;26.90;1.00;;;;;;6283468;28;20799;-54
2022/07/12 12:49:57;;;;;;;1.50;1.50;;;26.90;1.00;;;;;;6283792;28;20553;-54
2022/07/12 12:53:07;;;;;;;1.70;1.60;;;26.90;1.00;;;;;;6277592;28;20297;-53
2022/07/12 12:56:13;;;;;;;1.60;1.50;;;26.90;1.00;;;;;;6285820;28;20843;-53
2022/07/12 12:59:18;;;;;;;1.97;1.80;;;27.00;1.00;;;;;;6276193;28;20495;-54
2022/07/12 13:02:23;;;;;;;4.63;1.80;;;27.10;1.00;;;;;;6273375;28;20731;-52
2022/07/12 13:05:28;;;;;;;1.60;1.50;;;27.20;1.00;;;;;;6256963;28;20299;-52
2022/07/12 13:08:33;;;;;;;2.27;1.80;;;27.20;1.00;;;;;;6279258;28;20671;-53
2022/07/12 13:11:36;;;;;;;1.60;1.60;;;27.30;1.00;;;;;;6277438;28;20337;-55
2022/07/12 13:14:41;;;;;;;1.47;1.47;;;27.20;1.00;;;;;;6290796;28;20257;-54
2022/07/12 13:17:45;;;;;;;1.87;1.77;;;27.10;1.00;;;;;;6282118;28;20654;-55
2022/07/12 13:20:48;;;;;;;1.80;1.70;;;26.90;1.00;;;;;;6281074;28;20309;-55
2022/07/12 13:23:51;;;;;;;2.30;1.70;;;26.80;1.00;;;;;;6272263;28;20256;-55
2022/07/12 13:26:54;;;;;;;2.20;1.83;;;26.80;1.00;;;;;;6267391;28;20233;-53
2022/07/12 13:29:58;;;;;;;2.00;1.77;;;26.90;1.00;;;;;;6271334;28;20240;-53
2022/07/12 13:33:01;;;;;;;1.80;1.70;;;26.90;1.00;;;;;;6283323;28;20232;-54
2022/07/12 13:36:05;;;;;;;1.80;1.70;;;27.10;1.00;;;;;;6285948;28;20324;-55
2022/07/12 13:42:28;;;;;;;1.80;1.70;;;27.40;1.00;;;;;;6281037;28;20245;-54
2022/07/12 13:45:39;;;;;;;1.60;1.60;;;27.20;1.00;;;;;;6283737;28;20314;-56
2022/07/12 13:48:42;;;;;;;1.80;1.70;;;27.10;1.00;;;;;;6289726;28;20529;-53
2022/07/12 13:51:45;;;;;;;2.03;1.90;;;27.00;1.00;;;;;;6281255;28;20347;-53
2022/07/12 13:54:48;;;;;;;1.67;1.57;;;27.10;1.00;;;;;;6282990;28;20267;-54
2022/07/12 13:57:51;;;;;;;1.83;1.80;;;27.00;1.00;;;;;;6282644;28;20349;-53
2022/07/12 14:00:55;;;;;;;1.63;1.53;;;27.20;1.00;;;;;;6282301;28;20255;-53
2022/07/12 14:03:58;;;;;;;1.73;1.70;;;27.50;1.00;;;;;;6279361;28;20745;-54
2022/07/12 14:07:02;;;;;;;1.37;1.33;;;27.60;1.00;;;;;;6284267;28;20329;-54
2022/07/12 14:10:06;;;;;;;1.70;1.70;;;27.70;1.00;;;;;;6278990;28;20252;-54
2022/07/12 14:13:09;;;;;;;4.17;1.53;;;27.90;1.00;;;;;;6282609;28;20230;-54
2022/07/12 14:16:14;;;;;;;1.93;1.80;;;27.90;1.00;;;;;;6281086;28;20375;-54
2022/07/12 14:19:17;;;;;;;1.50;1.50;;;28.00;1.00;;;;;;6278046;28;20314;-54
2022/07/12 14:22:20;;;;;;;1.53;1.43;;;28.10;1.00;;;;;;6271318;28;20484;-53
2022/07/12 14:25:23;;;;;;;1.63;1.63;;;28.10;1.00;;;;;;6277830;28;20289;-53
2022/07/12 14:28:26;;;;;;;1.70;1.40;;;28.00;1.00;;;;;;6275319;28;20320;-53
2022/07/12 14:31:31;;;;;;;1.40;1.37;;;27.70;1.00;;;;;;6276226;28;20556;-55
2022/07/12 14:34:35;;;;;;;1.40;1.40;;;27.80;1.00;;;;;;6280013;28;20260;-56
2022/07/12 14:37:38;;;;;;;1.50;1.50;;;27.90;1.00;;;;;;6274679;28;20301;-53
2022/07/12 14:40:41;;;;;;;1.60;1.50;;;28.00;1.00;;;;;;6283438;28;20325;-54
2022/07/12 14:43:50;;;;;;;1.70;1.70;;;28.10;1.00;;;;;;6275906;28;20320;-54
2022/07/12 14:46:54;;;;;;;1.60;1.60;;;28.00;1.00;;;;;;6277576;28;20233;-55
2022/07/12 14:49:57;;;;;;;1.60;1.50;;;28.10;1.00;;;;;;6276437;28;20736;-55
2022/07/12 14:53:00;;;;;;;1.60;1.60;;;28.30;1.00;;;;;;6272624;28;20348;-53
2022/07/12 14:56:03;;;;;;;1.77;1.77;;;28.30;1.00;;;;;;6287678;28;20331;-53
2022/07/12 14:59:06;;;;;;;1.47;1.37;;;28.30;1.00;;;;;;6279489;28;20290;-55
2022/07/12 15:02:11;;;;;;;1.77;1.77;;;28.20;1.00;;;;;;6275817;28;20244;-54
2022/07/12 15:05:14;;;;;;;2.33;1.97;;;28.20;1.00;;;;;;6280697;28;20241;-53
2022/07/12 15:08:17;;;;;;;1.67;1.50;;;28.40;1.00;;;;;;6283635;28;20501;-54
2022/07/12 15:11:20;;;;;;;3.17;1.80;;;28.40;1.00;;;;;;6282761;28;20296;-54
2022/07/12 15:14:23;;;;;;;1.70;1.60;;;28.40;1.00;;;;;;6281672;28;20303;-54
2022/07/12 15:17:27;;;;;;;2.13;1.70;;;28.40;1.00;;;;;;6276439;28;20280;-54
2022/07/12 15:20:30;;;;;;;1.70;1.60;;;28.30;1.00;;;;;;6249482;28;20328;-54
2022/07/12 15:23:36;;;;;;;1.60;1.60;;;28.30;1.00;;;;;;6282155;28;20229;-54
2022/07/12 15:26:39;;;;;;;1.40;1.37;;;28.10;1.00;;;;;;6281803;28;20722;-53
2022/07/12 15:29:42;;;;;;;1.70;1.70;;;28.10;1.00;;;;;;6285988;28;20884;-53
2022/07/12 15:32:46;;;;;;;1.80;1.70;;;28.00;1.00;;;;;;6267493;28;20290;-53
2022/07/12 15:35:55;;;;;;;1.73;1.73;;;27.90;1.00;;;;;;6278173;28;20238;-54
2022/07/12 15:38:59;;;;;;;1.90;1.90;;;27.90;1.00;;;;;;6271736;28;20248;-55
2022/07/12 15:42:03;;;;;;;2.47;2.37;;;27.90;1.00;;;;;;6274943;28;20319;-55
2022/07/12 15:45:07;;;;;;;1.30;1.30;;;27.90;1.00;;;;;;6287943;28;20324;-54
2022/07/12 15:48:12;;;;;;;1.57;1.40;;;27.90;1.00;;;;;;6282448;28;20282;-54
2022/07/12 15:51:15;;;;;;;1.57;1.47;;;27.90;1.00;;;;;;6283010;28;20241;-54
2022/07/12 15:54:19;;;;;;;1.47;1.47;;;28.00;1.00;;;;;;6275542;28;20249;-55
2022/07/12 15:57:22;;;;;;;1.67;1.67;;;28.00;1.00;;;;;;6278064;28;20301;-54
2022/07/12 16:00:26;;;;;;;2.23;2.03;;;28.00;1.00;;;;;;6284274;28;20291;-54
2022/07/12 16:03:30;;;;;;;3.73;1.80;;;28.00;1.00;;;;;;6278053;28;20233;-53
2022/07/12 16:06:34;;;;;;;2.20;2.10;;;27.80;1.00;;;;;;6280681;28;20241;-53
2022/07/12 16:09:38;;;;;;;2.50;1.73;;;27.70;1.00;;;;;;6282686;28;20323;-53
2022/07/12 16:12:41;;;;;;;2.13;2.13;;;27.50;1.00;;;;;;6277187;28;20268;-53
2022/07/12 16:15:44;;;;;;;1.80;1.80;;;27.40;1.00;;;;;;6287069;28;21244;-54
2022/07/12 16:18:48;;;;;;;2.10;1.87;;;27.40;1.00;;;;;;6283289;28;20295;-53
2022/07/12 16:21:51;;;;;;;1.97;1.97;;;27.40;1.00;;;;;;6282193;28;20302;-54
2022/07/12 16:24:54;;;;;;;2.43;1.57;;;27.40;1.00;;;;;;6282323;28;20367;-54